Terminal Aerodrome Forecast
Issued by NWS Binghamton, NY

Home | Current Version | Previous Version | Text Only | Print | Product List | Glossary On
Versions: 1 2 3 4 5 6 7 8 9 10 11 12 13 14 15 16 17 18 19 20 21 22 23 24 25 26
000
FTUS41 KBGM 301720
TAFBGM
TAF
KBGM 301720Z 3018/3118 VRB04KT P6SM SCT200
     FM302100 13008KT P6SM BKN060
     FM310300 14010KT P6SM -RA OVC025
     FM310500 14010KT 5SM -RA OVC015
     FM310800 14011KT 3SM -RA OVC008
     FM311300 15013G22KT 1 1/2SM -RA OVC003=

USA.gov is the U.S. government's official web portal to all federal, state and local government web resources and services.